Terminal Aerodrome Forecast
Issued by NWS Detroit/Pontiac, MI

Home | Current Version | Previous Version | Text Only | Print | Product List | Glossary On
Versions: 1 2 3 4 5 6 7 8 9 10 11 12 13 14 15 16 17 18 19 20 21 22
534
FTUS43 KDTX 210520
TAFFNT
TAF
KFNT 210520Z 2106/2206 00000KT 1/2SM FG OVC004
      TEMPO 2106/2108 1/4SM FG VV003
     FM210800 10003KT 1/4SM FG VV002
     FM211400 14005KT 1SM BR OVC002
     FM211700 17007KT 3SM BR OVC006
     FM212000 18008KT 5SM BR SCT008 OVC015
     FM220200 15004KT 3/4SM BR OVC006=

USA.gov is the U.S. government's official web portal to all federal, state and local government web resources and services.